Time;durP1;ratioP1;P1;durP2;ratioP2;P2;SDS_P1;SDS_P2;PMS_P1;PMS_P2;Temp;Humidity;BMP_temperature;BMP_pressure;BME280_temperature;BME280_humidity;BME280_pressure;Samples;Min_cycle;Max_cycle;Signal;HPM_P1;HPM_P2
2023/03/16 00:00:15;;;;;;;31.47;11.90;;;6.10;60.80;;;;;;5035946;28;20885;-87
2023/03/16 00:02:42;;;;;;;34.67;10.90;;;6.20;61.00;;;;;;5054975;28;20455;-87
2023/03/16 00:05:11;;;;;;;34.00;11.83;;;6.00;61.40;;;;;;5045408;28;20969;-86
2023/03/16 00:07:41;;;;;;;32.00;11.97;;;6.00;61.70;;;;;;5039232;28;20554;-87
2023/03/16 00:10:11;;;;;;;30.67;10.97;;;6.10;60.70;;;;;;5056624;28;20456;-85
2023/03/16 00:12:38;;;;;;;44.57;10.23;;;6.30;60.20;;;;;;5067895;28;20453;-85
2023/03/16 00:15:06;;;;;;;63.47;14.07;;;6.40;60.10;;;;;;5031050;28;20471;-86
2023/03/16 00:17:34;;;;;;;97.17;14.60;;;6.40;60.00;;;;;;5056034;28;21049;-87
2023/03/16 00:20:05;;;;;;;62.23;9.97;;;6.10;59.60;;;;;;5051853;28;20477;-88
2023/03/16 00:22:32;;;;;;;66.80;11.80;;;5.80;60.80;;;;;;5031392;28;20480;-87
2023/03/16 00:25:00;;;;;;;139.77;12.00;;;5.60;62.50;;;;;;5044604;28;20627;-85
2023/03/16 00:27:28;;;;;;;42.97;10.30;;;5.70;62.20;;;;;;5039201;28;20457;-88
2023/03/16 00:29:55;;;;;;;64.33;13.00;;;5.90;62.00;;;;;;5045073;28;20482;-87
2023/03/16 00:32:24;;;;;;;105.47;12.70;;;6.10;61.10;;;;;;5051683;28;20457;-88
2023/03/16 00:34:51;;;;;;;57.97;13.60;;;6.20;61.20;;;;;;5039803;28;20475;-86
2023/03/16 00:37:19;;;;;;;67.60;11.83;;;6.00;61.20;;;;;;5043449;28;20447;-87
2023/03/16 00:39:47;;;;;;;19.87;10.60;;;6.10;61.60;;;;;;5026132;28;20472;-87
2023/03/16 00:42:16;;;;;;;119.20;15.37;;;6.00;61.70;;;;;;5039672;28;20449;-87
2023/03/16 00:44:44;;;;;;;64.47;12.13;;;6.10;60.90;;;;;;5046339;28;20537;-87
2023/03/16 00:47:14;;;;;;;18.27;9.03;;;6.00;61.00;;;;;;5069553;28;20492;-85
2023/03/16 00:49:42;;;;;;;26.77;9.63;;;6.20;61.10;;;;;;5044548;28;20479;-88
2023/03/16 00:52:13;;;;;;;57.73;10.20;;;6.30;60.50;;;;;;5036449;28;20444;-87
2023/03/16 00:54:42;;;;;;;31.50;11.87;;;6.20;60.70;;;;;;5043347;28;20483;-86
2023/03/16 00:57:11;;;;;;;53.83;11.63;;;6.30;60.70;;;;;;5035570;28;20468;-86
2023/03/16 00:59:40;;;;;;;48.73;11.50;;;6.30;60.20;;;;;;5059092;28;20990;-86
2023/03/16 01:02:08;;;;;;;55.77;11.80;;;6.10;61.10;;;;;;5036640;28;20449;-86
2023/03/16 01:04:36;;;;;;;47.90;11.57;;;5.90;62.40;;;;;;5067498;28;20514;-87
2023/03/16 01:07:03;;;;;;;40.37;11.10;;;5.90;61.90;;;;;;5037961;28;20523;-85
2023/03/16 01:09:35;;;;;;;38.37;10.33;;;6.10;61.10;;;;;;5041957;28;21343;-87
2023/03/16 01:12:05;;;;;;;53.57;11.83;;;6.10;60.60;;;;;;5023216;28;20539;-86
2023/03/16 01:14:33;;;;;;;35.67;10.80;;;5.80;61.00;;;;;;5036774;28;20511;-87
2023/03/16 01:17:02;;;;;;;44.43;12.80;;;6.00;61.80;;;;;;5036900;28;20464;-87
2023/03/16 01:19:34;;;;;;;46.47;11.77;;;6.10;61.20;;;;;;5035189;28;21031;-87
2023/03/16 01:22:01;;;;;;;88.97;12.13;;;5.90;61.50;;;;;;5021322;28;20479;-87
2023/03/16 01:24:28;;;;;;;45.30;10.37;;;5.90;61.60;;;;;;5043039;28;20487;-86
2023/03/16 01:26:56;;;;;;;76.60;15.10;;;6.00;60.80;;;;;;5053128;28;20534;-86
2023/03/16 01:29:22;;;;;;;64.27;13.10;;;5.70;61.00;;;;;;5041741;28;20437;-86
2023/03/16 01:31:51;;;;;;;82.43;11.77;;;5.70;61.40;;;;;;5026542;28;20936;-87
2023/03/16 01:34:20;;;;;;;60.83;11.10;;;5.50;61.70;;;;;;5044211;28;20844;-86
2023/03/16 01:36:49;;;;;;;47.90;10.97;;;5.40;62.40;;;;;;5035176;28;20448;-86
2023/03/16 01:39:24;;;;;;;46.43;12.80;;;5.50;62.50;;;;;;5019895;28;20451;-87
2023/03/16 01:41:52;;;;;;;35.93;11.00;;;5.60;62.30;;;;;;5059785;28;20502;-87
2023/03/16 01:44:23;;;;;;;67.77;11.73;;;5.80;61.50;;;;;;5051131;28;20486;-86
2023/03/16 01:46:50;;;;;;;65.03;14.07;;;5.70;61.50;;;;;;5026964;28;20451;-87
2023/03/16 01:49:22;;;;;;;87.90;12.47;;;5.40;62.10;;;;;;5035502;28;20452;-85
2023/03/16 01:51:55;;;;;;;79.67;13.93;;;5.30;62.80;;;;;;5068573;28;20456;-86
2023/03/16 01:54:27;;;;;;;63.87;9.73;;;5.20;63.00;;;;;;5038936;28;20495;-87
2023/03/16 01:56:59;;;;;;;119.87;15.40;;;5.10;63.00;;;;;;5034782;28;20528;-87
2023/03/16 01:59:31;;;;;;;42.20;9.37;;;5.10;62.90;;;;;;5054041;28;20546;-87
2023/03/16 02:01:58;;;;;;;37.97;9.53;;;5.10;63.50;;;;;;5060147;28;20828;-86
2023/03/16 02:04:38;;;;;;;39.57;11.00;;;5.10;63.30;;;;;;5041948;28;20484;-87
2023/03/16 02:07:07;;;;;;;25.47;9.80;;;5.00;63.30;;;;;;5021899;28;20449;-86
2023/03/16 02:09:37;;;;;;;183.40;13.37;;;5.10;63.80;;;;;;5038445;28;20452;-86
2023/03/16 02:12:04;;;;;;;47.90;9.97;;;5.10;63.30;;;;;;5038973;28;20535;-86
2023/03/16 02:14:34;;;;;;;39.00;11.07;;;5.30;63.10;;;;;;5036834;28;21107;-85
2023/03/16 02:17:01;;;;;;;61.33;11.07;;;5.40;62.80;;;;;;5026332;28;20461;-85
2023/03/16 02:19:41;;;;;;;22.00;9.13;;;5.10;62.50;;;;;;5025827;28;20525;-87
2023/03/16 02:22:10;;;;;;;19.27;9.90;;;5.20;63.20;;;;;;5037258;28;21550;-86
2023/03/16 02:24:38;;;;;;;82.37;10.70;;;5.50;62.40;;;;;;5025842;28;20542;-85
2023/03/16 02:27:07;;;;;;;28.17;9.97;;;5.20;62.10;;;;;;5037937;28;20523;-85
2023/03/16 02:30:07;;;;;;;45.97;11.70;;;4.90;62.70;;;;;;5040576;28;20455;-85
2023/03/16 02:32:43;;;;;;;24.37;9.47;;;4.90;63.00;;;;;;5042210;28;20460;-86
2023/03/16 02:35:11;;;;;;;34.70;11.27;;;4.80;62.70;;;;;;5038155;28;20971;-86
2023/03/16 02:37:39;;;;;;;37.83;9.30;;;4.80;63.10;;;;;;5033954;28;20439;-85
2023/03/16 02:40:20;;;;;;;28.13;8.80;;;4.80;62.80;;;;;;5030607;28;20449;-86
2023/03/16 02:42:53;;;;;;;33.23;10.17;;;4.90;62.70;;;;;;5030541;28;21130;-86
2023/03/16 02:45:24;;;;;;;18.73;9.37;;;5.10;62.40;;;;;;5046389;28;20456;-84
2023/03/16 02:47:53;;;;;;;27.43;11.07;;;5.20;62.20;;;;;;5041804;28;20486;-87
2023/03/16 02:50:20;;;;;;;16.63;9.30;;;5.20;61.60;;;;;;5037752;28;20465;-87
2023/03/16 02:52:48;;;;;;;22.30;10.97;;;5.20;61.30;;;;;;5055546;28;20462;-86
2023/03/16 02:55:15;;;;;;;21.90;9.10;;;5.10;62.20;;;;;;5036974;28;20479;-85
2023/03/16 02:57:42;;;;;;;31.00;10.20;;;5.10;61.60;;;;;;5062257;28;20449;-85
2023/03/16 03:00:17;;;;;;;24.73;11.40;;;5.30;61.20;;;;;;5026729;28;20464;-85
2023/03/16 03:02:46;;;;;;;48.37;11.30;;;5.30;60.60;;;;;;5023154;28;20445;-86
2023/03/16 03:05:13;;;;;;;23.10;9.83;;;4.90;60.60;;;;;;5057405;28;20478;-85
2023/03/16 03:07:41;;;;;;;16.53;8.70;;;4.90;61.60;;;;;;5056768;28;20459;-85
2023/03/16 03:10:09;;;;;;;18.37;9.60;;;5.00;61.20;;;;;;5033627;28;20588;-87
2023/03/16 03:12:37;;;;;;;19.53;9.57;;;5.10;60.80;;;;;;5044675;28;20540;-86
2023/03/16 03:15:08;;;;;;;46.37;10.00;;;5.10;60.40;;;;;;5058209;28;20541;-86
2023/03/16 03:17:46;;;;;;;15.77;9.40;;;5.10;60.30;;;;;;5029278;28;20458;-85
2023/03/16 03:20:15;;;;;;;42.57;10.00;;;5.20;60.60;;;;;;5027982;28;20444;-86
2023/03/16 03:22:44;;;;;;;20.63;8.60;;;5.20;59.30;;;;;;5025330;28;20448;-86
2023/03/16 03:25:12;;;;;;;18.13;8.30;;;4.80;59.80;;;;;;5070094;28;20471;-87
2023/03/16 03:27:41;;;;;;;25.03;9.43;;;4.50;61.50;;;;;;5052734;28;20439;-87
2023/03/16 03:30:12;;;;;;;20.80;10.33;;;4.50;61.40;;;;;;5046924;28;20957;-87
2023/03/16 03:32:39;;;;;;;27.43;10.10;;;4.70;61.60;;;;;;5045347;28;20452;-85
2023/03/16 03:35:11;;;;;;;24.07;8.43;;;4.80;60.70;;;;;;5045335;28;20507;-86
2023/03/16 03:37:39;;;;;;;19.70;8.90;;;5.00;61.20;;;;;;5049377;28;20455;-87
2023/03/16 03:40:10;;;;;;;18.60;8.27;;;5.00;60.10;;;;;;5054462;28;20844;-86
2023/03/16 03:42:37;;;;;;;15.27;7.53;;;4.90;60.00;;;;;;5027449;28;20902;-85
2023/03/16 03:45:07;;;;;;;22.93;9.17;;;5.00;60.40;;;;;;5028992;28;21099;-85
2023/03/16 03:47:34;;;;;;;20.87;8.33;;;5.10;60.00;;;;;;5053661;28;22085;-85
2023/03/16 03:50:02;;;;;;;16.50;9.10;;;5.00;59.40;;;;;;5044905;28;20477;-86
2023/03/16 03:52:33;;;;;;;27.50;9.37;;;4.90;59.70;;;;;;5045650;28;21116;-86
2023/03/16 03:55:00;;;;;;;21.13;9.13;;;4.80;60.40;;;;;;5070529;28;20916;-86
2023/03/16 03:57:27;;;;;;;18.57;10.13;;;4.80;60.20;;;;;;5020689;28;20538;-86
2023/03/16 03:59:54;;;;;;;19.23;9.50;;;4.80;60.20;;;;;;5045112;28;20976;-85
2023/03/16 04:02:40;;;;;;;21.40;9.60;;;5.00;60.40;;;;;;5067873;28;20460;-87
2023/03/16 04:05:16;;;;;;;17.70;10.83;;;5.00;58.80;;;;;;5053126;28;20460;-85
2023/03/16 04:07:44;;;;;;;18.43;9.00;;;5.00;59.70;;;;;;5044861;28;20501;-87
2023/03/16 04:10:13;;;;;;;19.63;9.10;;;5.20;59.50;;;;;;5030470;28;20825;-86
2023/03/16 04:12:43;;;;;;;22.10;9.90;;;5.40;58.90;;;;;;5022095;28;20464;-86
2023/03/16 04:15:12;;;;;;;17.17;9.23;;;5.40;58.10;;;;;;5053552;28;20591;-86
2023/03/16 04:18:02;;;;;;;35.50;11.80;;;5.50;58.30;;;;;;5044080;28;20459;-86
2023/03/16 04:20:29;;;;;;;21.50;11.30;;;5.50;57.90;;;;;;5051922;28;20481;-87
2023/03/16 04:22:58;;;;;;;14.40;10.10;;;5.40;57.30;;;;;;5035742;28;20959;-85
2023/03/16 04:25:28;;;;;;;27.37;14.40;;;5.40;57.90;;;;;;5043449;28;20476;-86
2023/03/16 04:27:56;;;;;;;24.77;12.97;;;5.50;57.90;;;;;;5029585;28;20841;-85
2023/03/16 04:30:27;;;;;;;24.93;12.67;;;5.40;57.80;;;;;;5042688;28;20476;-86
2023/03/16 04:33:03;;;;;;;82.50;35.83;;;5.40;58.00;;;;;;5027122;28;20475;-87
2023/03/16 04:35:31;;;;;;;39.37;18.60;;;5.60;57.40;;;;;;5068988;28;20996;-85
2023/03/16 04:38:01;;;;;;;18.73;10.87;;;5.50;57.20;;;;;;5053079;28;20543;-86
2023/03/16 04:40:37;;;;;;;24.80;11.07;;;5.50;57.50;;;;;;5052432;28;20528;-87
2023/03/16 04:43:12;;;;;;;20.53;10.90;;;5.40;57.60;;;;;;5037902;28;20921;-86
2023/03/16 04:45:40;;;;;;;17.30;9.33;;;5.30;58.00;;;;;;5053141;28;20501;-85
2023/03/16 04:48:08;;;;;;;20.27;10.50;;;5.00;58.40;;;;;;5028136;28;20451;-86
2023/03/16 04:50:36;;;;;;;19.70;8.53;;;5.00;58.80;;;;;;5058335;28;21451;-86
2023/03/16 04:53:04;;;;;;;19.10;8.97;;;4.80;59.00;;;;;;5026870;28;20989;-87
2023/03/16 04:55:32;;;;;;;25.50;11.13;;;4.60;59.40;;;;;;5027321;28;20513;-85
2023/03/16 04:58:00;;;;;;;15.20;8.67;;;4.60;59.80;;;;;;5033150;28;21019;-85
2023/03/16 05:00:32;;;;;;;17.27;10.00;;;4.70;59.50;;;;;;5047413;28;20457;-87
2023/03/16 05:03:07;;;;;;;16.80;9.40;;;4.90;59.30;;;;;;5050792;28;20444;-85
2023/03/16 05:05:34;;;;;;;18.03;8.77;;;4.50;58.10;;;;;;5015293;28;20472;-85
2023/03/16 05:08:02;;;;;;;20.97;9.80;;;4.40;59.30;;;;;;5035510;28;20448;-87
2023/03/16 05:10:34;;;;;;;15.47;9.53;;;4.40;59.30;;;;;;5039954;28;20754;-87
2023/03/16 05:13:02;;;;;;;17.90;8.40;;;4.40;59.50;;;;;;5043449;28;20459;-87
2023/03/16 05:15:29;;;;;;;25.23;11.13;;;4.40;59.90;;;;;;5016572;28;20489;-86
2023/03/16 05:18:01;;;;;;;18.03;9.80;;;4.50;59.40;;;;;;5051710;28;20544;-86
2023/03/16 05:20:28;;;;;;;16.97;9.47;;;4.30;59.70;;;;;;5035648;28;20619;-87
2023/03/16 05:22:59;;;;;;;21.33;10.20;;;4.10;60.20;;;;;;5044317;28;20476;-86
2023/03/16 05:25:29;;;;;;;26.07;10.80;;;4.20;60.10;;;;;;5042379;28;20492;-86
2023/03/16 05:28:00;;;;;;;24.33;10.73;;;4.00;60.50;;;;;;5059231;28;20440;-87
2023/03/16 05:30:33;;;;;;;19.03;10.80;;;4.00;61.00;;;;;;5048838;28;20839;-87
2023/03/16 05:33:04;;;;;;;21.20;10.73;;;4.30;60.90;;;;;;5042056;28;20461;-86
2023/03/16 05:35:31;;;;;;;26.13;12.97;;;4.50;59.90;;;;;;5066504;28;20475;-86
2023/03/16 05:38:04;;;;;;;31.57;10.50;;;4.30;60.20;;;;;;5053552;28;20510;-86
2023/03/16 05:40:33;;;;;;;19.70;10.00;;;4.20;60.40;;;;;;5047714;28;20444;-87
2023/03/16 05:43:14;;;;;;;33.43;10.70;;;4.00;60.80;;;;;;5041741;28;20452;-85
2023/03/16 05:45:47;;;;;;;18.00;10.90;;;4.10;60.90;;;;;;5024695;28;20437;-88
2023/03/16 05:48:17;;;;;;;27.17;12.47;;;4.20;60.80;;;;;;5061185;28;20449;-87
2023/03/16 05:50:48;;;;;;;32.73;11.07;;;4.30;61.00;;;;;;5038280;28;20444;-86
2023/03/16 05:53:18;;;;;;;22.53;11.40;;;4.10;60.70;;;;;;5017451;28;20911;-85
2023/03/16 05:55:45;;;;;;;29.50;11.00;;;4.10;60.80;;;;;;5041791;28;20468;-87
2023/03/16 05:58:16;;;;;;;24.73;11.23;;;4.00;61.20;;;;;;5052676;28;20448;-87
2023/03/16 06:00:44;;;;;;;31.93;11.30;;;3.90;61.20;;;;;;5049899;28;20466;-87
2023/03/16 06:03:22;;;;;;;44.13;11.90;;;3.80;61.40;;;;;;5042302;28;20444;-86
2023/03/16 06:05:49;;;;;;;21.07;12.20;;;3.80;61.40;;;;;;5049176;28;20458;-86
2023/03/16 06:08:22;;;;;;;22.43;10.23;;;3.70;61.90;;;;;;5059356;28;20483;-85
2023/03/16 06:10:51;;;;;;;24.23;11.60;;;4.10;62.40;;;;;;5053688;28;20962;-87
2023/03/16 06:13:20;;;;;;;26.47;14.77;;;4.50;61.30;;;;;;5043994;28;20989;-84
2023/03/16 06:15:49;;;;;;;40.20;17.67;;;4.70;59.80;;;;;;5046644;28;20476;-86
2023/03/16 06:18:15;;;;;;;24.70;14.10;;;4.70;59.70;;;;;;5025322;28;20462;-87
2023/03/16 06:20:45;;;;;;;29.20;15.33;;;4.60;60.10;;;;;;5068858;28;20660;-86
2023/03/16 06:23:13;;;;;;;47.50;13.73;;;4.30;60.60;;;;;;5020411;28;20448;-86
2023/03/16 06:25:40;;;;;;;24.80;13.13;;;4.40;60.70;;;;;;5027636;28;20472;-85
2023/03/16 06:28:08;;;;;;;29.30;14.90;;;4.30;60.80;;;;;;5059954;28;20455;-87
2023/03/16 06:30:37;;;;;;;35.43;13.20;;;4.30;61.10;;;;;;5058464;28;20447;-85
2023/03/16 06:33:04;;;;;;;24.70;12.70;;;4.40;61.00;;;;;;5028678;28;20467;-86
2023/03/16 06:35:31;;;;;;;22.63;12.77;;;4.30;60.90;;;;;;5037123;28;20544;-85
2023/03/16 06:38:10;;;;;;;30.07;11.00;;;4.10;61.70;;;;;;5031323;28;20443;-86
2023/03/16 06:40:54;;;;;;;26.20;14.03;;;3.90;62.10;;;;;;5050101;28;20478;-85
2023/03/16 06:43:22;;;;;;;24.73;11.43;;;3.90;62.40;;;;;;5039515;28;20968;-85
2023/03/16 06:45:52;;;;;;;25.77;13.20;;;4.00;62.50;;;;;;5023113;28;20870;-86
2023/03/16 06:48:19;;;;;;;25.13;14.07;;;4.10;62.10;;;;;;5045044;28;20544;-86
2023/03/16 06:50:47;;;;;;;25.97;13.97;;;4.20;62.40;;;;;;5044318;28;20453;-85
2023/03/16 06:53:19;;;;;;;20.70;12.30;;;4.40;61.70;;;;;;5029546;28;20455;-84
2023/03/16 06:55:46;;;;;;;27.33;14.03;;;4.40;61.10;;;;;;5062940;28;20477;-86
2023/03/16 06:58:13;;;;;;;43.20;15.13;;;4.30;61.90;;;;;;5044550;28;20550;-85
2023/03/16 07:00:40;;;;;;;33.70;13.93;;;4.40;62.10;;;;;;5041248;28;20987;-87
2023/03/16 07:03:09;;;;;;;23.90;13.07;;;4.70;61.50;;;;;;5027331;28;20456;-86
2023/03/16 07:05:38;;;;;;;31.37;13.40;;;4.60;61.00;;;;;;5044576;28;20464;-86
2023/03/16 07:08:05;;;;;;;21.43;12.87;;;4.70;61.50;;;;;;5038425;28;20463;-86
2023/03/16 07:10:33;;;;;;;21.60;13.53;;;4.50;61.10;;;;;;5043395;28;20460;-86
2023/03/16 07:13:00;;;;;;;28.47;15.20;;;4.60;62.10;;;;;;5043790;28;20554;-86
2023/03/16 07:15:27;;;;;;;22.43;12.27;;;4.80;61.60;;;;;;5038798;28;20459;-86
2023/03/16 07:17:57;;;;;;;29.67;14.83;;;4.90;60.60;;;;;;5053972;28;20451;-86
2023/03/16 07:20:29;;;;;;;26.30;14.33;;;5.00;61.50;;;;;;5027022;28;20468;-86
2023/03/16 07:22:57;;;;;;;26.47;13.20;;;5.10;60.90;;;;;;5072124;28;20510;-84
2023/03/16 07:25:24;;;;;;;24.50;12.17;;;5.20;60.80;;;;;;5046202;28;21008;-87
2023/03/16 07:27:54;;;;;;;26.57;13.83;;;5.10;60.40;;;;;;5039763;28;20456;-86
2023/03/16 07:30:27;;;;;;;24.03;12.50;;;5.20;60.30;;;;;;5043697;28;20806;-87
2023/03/16 07:32:54;;;;;;;26.50;13.37;;;5.20;60.20;;;;;;5056988;28;20456;-86
2023/03/16 07:35:23;;;;;;;23.33;13.80;;;5.10;60.80;;;;;;5044845;28;20476;-86
2023/03/16 07:37:51;;;;;;;24.30;14.87;;;5.20;61.30;;;;;;5056825;28;20471;-86
2023/03/16 07:40:20;;;;;;;67.07;28.23;;;5.40;60.40;;;;;;5061377;28;20482;-85
2023/03/16 07:42:47;;;;;;;32.73;16.63;;;5.50;60.20;;;;;;5060574;28;20440;-86
2023/03/16 07:45:16;;;;;;;43.40;19.63;;;5.40;60.40;;;;;;5047058;28;20552;-87
2023/03/16 07:47:44;;;;;;;25.73;14.40;;;5.60;60.80;;;;;;5022984;28;20865;-87
2023/03/16 07:50:38;;;;;;;26.30;14.70;;;5.60;60.20;;;;;;5039175;28;20849;-86
2023/03/16 07:53:07;;;;;;;25.87;13.03;;;5.70;59.90;;;;;;5053077;28;21011;-86
2023/03/16 07:55:37;;;;;;;21.27;13.70;;;5.40;59.90;;;;;;5026420;28;21106;-86
2023/03/16 07:58:05;;;;;;;25.77;12.17;;;5.40;60.90;;;;;;5060660;28;20458;-86
2023/03/16 08:00:34;;;;;;;23.63;14.30;;;5.50;60.80;;;;;;5022402;28;20448;-86
2023/03/16 08:03:02;;;;;;;28.20;14.20;;;5.50;60.80;;;;;;5051621;28;20457;-87
2023/03/16 08:05:31;;;;;;;23.07;14.20;;;5.50;61.50;;;;;;5029216;28;20567;-86
2023/03/16 08:08:01;;;;;;;19.90;12.57;;;5.50;61.40;;;;;;5036768;28;20532;-85
2023/03/16 08:10:30;;;;;;;24.17;12.87;;;5.70;61.40;;;;;;5043470;28;20467;-85
2023/03/16 08:13:09;;;;;;;24.50;13.37;;;5.90;60.80;;;;;;5040023;28;20554;-85
2023/03/16 08:15:41;;;;;;;27.63;14.83;;;6.20;60.20;;;;;;5029427;28;20480;-87
2023/03/16 08:18:14;;;;;;;26.70;14.07;;;6.30;59.90;;;;;;5047172;28;20490;-86
2023/03/16 08:20:43;;;;;;;23.03;14.67;;;6.40;59.40;;;;;;5058403;28;20448;-86
2023/03/16 08:23:12;;;;;;;19.63;12.63;;;6.50;59.20;;;;;;5058876;28;20837;-86
2023/03/16 08:25:42;;;;;;;26.67;13.00;;;6.80;59.30;;;;;;5047790;28;20467;-85
2023/03/16 08:28:14;;;;;;;26.77;13.80;;;6.90;58.70;;;;;;5072158;28;20445;-86
2023/03/16 08:30:45;;;;;;;20.67;11.40;;;6.90;58.80;;;;;;5040653;28;20502;-86
2023/03/16 08:33:32;;;;;;;21.70;12.73;;;6.60;59.20;;;;;;5026477;28;20820;-87
2023/03/16 08:36:00;;;;;;;21.00;13.00;;;6.60;59.80;;;;;;5028511;28;20466;-84
2023/03/16 08:38:27;;;;;;;22.27;12.33;;;6.60;58.80;;;;;;5037702;28;21052;-85
2023/03/16 08:41:01;;;;;;;21.50;10.80;;;6.60;59.10;;;;;;5046513;28;20442;-85
2023/03/16 08:43:28;;;;;;;23.73;12.47;;;6.80;59.30;;;;;;5057859;28;20940;-87
2023/03/16 08:45:55;;;;;;;19.43;10.77;;;6.80;58.90;;;;;;5036536;28;20464;-86
2023/03/16 08:48:26;;;;;;;28.30;13.37;;;6.80;59.20;;;;;;5022227;28;20552;-85
2023/03/16 08:50:54;;;;;;;20.33;12.67;;;6.80;58.80;;;;;;5056426;28;20448;-87
2023/03/16 08:53:21;;;;;;;21.97;13.70;;;6.50;59.40;;;;;;5059760;28;20480;-86
2023/03/16 08:55:48;;;;;;;22.73;13.07;;;6.60;60.00;;;;;;5060291;28;21039;-86
2023/03/16 08:58:17;;;;;;;25.77;12.80;;;6.70;59.80;;;;;;5044450;28;20456;-87
2023/03/16 09:00:43;;;;;;;23.43;13.50;;;6.50;59.80;;;;;;5052873;28;20969;-86
2023/03/16 09:03:10;;;;;;;21.20;13.13;;;6.30;61.20;;;;;;5045369;28;20457;-86
2023/03/16 09:05:37;;;;;;;21.43;12.43;;;6.50;61.40;;;;;;5043311;28;20792;-87
2023/03/16 09:08:05;;;;;;;20.70;12.73;;;6.80;61.00;;;;;;5037672;28;20451;-86
2023/03/16 09:10:32;;;;;;;23.47;15.67;;;7.10;59.70;;;;;;5054079;28;20456;-86
2023/03/16 09:12:59;;;;;;;25.17;13.83;;;7.00;59.70;;;;;;5048730;28;20450;-86
2023/03/16 09:15:28;;;;;;;25.93;13.30;;;7.00;60.40;;;;;;5027622;28;20590;-87
2023/03/16 09:17:56;;;;;;;21.53;12.73;;;7.00;60.20;;;;;;5027621;28;20486;-87
2023/03/16 09:20:23;;;;;;;28.13;13.60;;;6.60;61.10;;;;;;5044632;28;20453;-86
2023/03/16 09:22:50;;;;;;;23.23;13.60;;;6.50;61.90;;;;;;5042375;28;20448;-87
2023/03/16 09:25:18;;;;;;;24.77;14.50;;;6.60;62.50;;;;;;5029889;28;20499;-87
2023/03/16 09:27:45;;;;;;;24.50;14.63;;;7.00;62.30;;;;;;5041089;28;21033;-87
2023/03/16 09:30:13;;;;;;;19.27;11.90;;;7.30;61.20;;;;;;5046190;28;20445;-87
2023/03/16 09:32:41;;;;;;;19.60;13.63;;;7.60;60.00;;;;;;5039438;28;21184;-86
2023/03/16 09:35:09;;;;;;;24.97;12.50;;;7.90;60.50;;;;;;5046272;28;20472;-85
2023/03/16 09:37:36;;;;;;;23.80;13.97;;;7.90;60.00;;;;;;5056462;28;20827;-85
2023/03/16 09:40:04;;;;;;;23.00;12.93;;;8.10;60.20;;;;;;5042597;28;20535;-88
2023/03/16 09:42:35;;;;;;;19.60;10.97;;;8.30;59.70;;;;;;5071205;28;21179;-88
2023/03/16 09:45:14;;;;;;;16.87;11.50;;;8.30;59.80;;;;;;5073866;28;20476;-86
2023/03/16 09:47:43;;;;;;;20.30;10.97;;;8.40;59.60;;;;;;5030615;28;20812;-87
2023/03/16 09:50:16;;;;;;;17.90;9.90;;;8.60;58.90;;;;;;5039165;28;20963;-86
2023/03/16 09:52:49;;;;;;;15.27;8.90;;;8.90;59.10;;;;;;5052335;28;20506;-87
2023/03/16 09:55:27;;;;;;;15.57;10.40;;;9.10;57.10;;;;;;5045505;28;20969;-88
2023/03/16 09:57:55;;;;;;;13.80;9.27;;;9.00;55.90;;;;;;5029833;28;20468;-87
2023/03/16 10:00:24;;;;;;;14.53;9.37;;;9.20;56.40;;;;;;5071115;28;20448;-88
2023/03/16 10:03:13;;;;;;;15.20;9.10;;;9.40;54.80;;;;;;5054443;28;20483;-88
2023/03/16 10:05:40;;;;;;;12.90;8.10;;;9.60;55.20;;;;;;5053057;28;20487;-86
2023/03/16 10:08:13;;;;;;;14.70;7.73;;;9.60;54.30;;;;;;5040420;28;20448;-86
2023/03/16 10:11:05;;;;;;;16.17;8.27;;;9.40;54.40;;;;;;5058082;28;20445;-86
2023/03/16 10:13:40;;;;;;;14.93;10.20;;;9.30;54.70;;;;;;5029074;28;20456;-87
2023/03/16 10:16:12;;;;;;;12.43;8.60;;;9.30;55.70;;;;;;5044105;28;20943;-85
2023/03/16 10:18:44;;;;;;;12.90;8.90;;;9.60;55.30;;;;;;5066727;28;20455;-87
2023/03/16 10:21:14;;;;;;;13.30;8.40;;;9.50;55.00;;;;;;5044878;28;20436;-87
2023/03/16 10:23:42;;;;;;;13.83;8.30;;;9.60;54.70;;;;;;5050320;28;20965;-88
2023/03/16 10:26:20;;;;;;;14.10;8.67;;;9.70;56.10;;;;;;5046950;28;20447;-85
2023/03/16 10:28:47;;;;;;;12.70;8.57;;;10.20;53.60;;;;;;5037297;28;20451;-87
2023/03/16 10:31:20;;;;;;;13.10;7.53;;;10.40;53.20;;;;;;5023643;28;20458;-87
2023/03/16 10:33:50;;;;;;;13.37;7.70;;;10.80;52.20;;;;;;5056684;28;20479;-87
2023/03/16 10:36:26;;;;;;;14.70;8.40;;;10.80;51.10;;;;;;5028288;28;21176;-87
2023/03/16 10:38:57;;;;;;;10.83;7.30;;;10.80;51.20;;;;;;5069809;28;20963;-87
2023/03/16 10:41:28;;;;;;;12.00;7.40;;;10.70;51.10;;;;;;5054859;28;20451;-87
2023/03/16 10:43:57;;;;;;;12.77;7.10;;;10.90;51.30;;;;;;5062213;28;20844;-87
2023/03/16 10:46:27;;;;;;;12.07;7.97;;;11.20;50.90;;;;;;5045513;28;20440;-87
2023/03/16 10:48:58;;;;;;;10.27;7.40;;;11.20;49.80;;;;;;5034545;28;20459;-88
2023/03/16 10:51:29;;;;;;;11.10;7.43;;;11.20;51.00;;;;;;5053494;28;20456;-88
2023/03/16 10:54:03;;;;;;;13.67;9.43;;;11.20;50.30;;;;;;5057217;28;20583;-87
2023/03/16 10:56:35;;;;;;;13.00;8.27;;;11.40;51.50;;;;;;5024559;28;20547;-86
2023/03/16 10:59:26;;;;;;;13.27;8.13;;;11.90;50.50;;;;;;5073125;28;20452;-87
2023/03/16 11:01:53;;;;;;;13.07;8.70;;;12.20;48.90;;;;;;5045118;28;20444;-87
2023/03/16 11:04:22;;;;;;;15.13;9.20;;;12.40;49.70;;;;;;5045673;28;20466;-84
2023/03/16 11:06:53;;;;;;;11.10;8.00;;;12.70;48.50;;;;;;5025426;28;20444;-85
2023/03/16 11:09:23;;;;;;;12.57;7.10;;;12.50;47.40;;;;;;5037247;28;20455;-85
2023/03/16 11:11:51;;;;;;;12.23;6.73;;;12.30;47.80;;;;;;5031276;28;20720;-85
2023/03/16 11:14:22;;;;;;;8.83;6.93;;;12.30;47.70;;;;;;5072788;28;20494;-85
2023/03/16 11:16:54;;;;;;;10.13;6.63;;;12.50;49.50;;;;;;5037625;28;20504;-86
2023/03/16 11:19:28;;;;;;;10.37;6.90;;;12.70;47.30;;;;;;5047001;28;20935;-85
2023/03/16 11:21:58;;;;;;;10.70;6.80;;;12.70;47.40;;;;;;5065735;28;20805;-85
2023/03/16 11:24:34;;;;;;;11.00;6.97;;;12.60;46.30;;;;;;5046688;28;20460;-84
2023/03/16 11:27:07;;;;;;;11.80;7.70;;;11.70;48.20;;;;;;5057585;28;20492;-85
2023/03/16 11:29:46;;;;;;;10.37;6.70;;;12.00;49.00;;;;;;5054422;28;21029;-85
2023/03/16 11:32:20;;;;;;;8.00;6.23;;;12.30;47.70;;;;;;5047351;28;20441;-85
2023/03/16 11:34:48;;;;;;;9.37;6.97;;;12.30;47.50;;;;;;5055990;28;20505;-84
2023/03/16 11:37:24;;;;;;;9.13;6.13;;;12.10;47.30;;;;;;5025475;28;20452;-86
2023/03/16 11:40:00;;;;;;;8.87;6.07;;;12.00;47.50;;;;;;5025201;28;20490;-85
2023/03/16 11:42:34;;;;;;;9.93;7.13;;;12.00;48.00;;;;;;5052645;28;20453;-85
2023/03/16 11:45:10;;;;;;;10.53;6.87;;;12.10;47.20;;;;;;5056614;28;20498;-84
2023/03/16 11:47:58;;;;;;;14.83;6.50;;;12.30;47.60;;;;;;5057312;28;20440;-84
2023/03/16 11:50:31;;;;;;;16.07;8.10;;;12.70;47.60;;;;;;5046904;28;20518;-85
2023/03/16 11:53:05;;;;;;;11.43;7.13;;;12.80;46.10;;;;;;5064455;28;20460;-84
2023/03/16 11:55:40;;;;;;;18.20;9.47;;;12.70;46.60;;;;;;5045746;28;20475;-85
2023/03/16 11:58:31;;;;;;;11.40;7.23;;;12.70;47.00;;;;;;5024982;28;20496;-86
2023/03/16 12:01:06;;;;;;;10.27;6.90;;;13.30;47.20;;;;;;5070813;28;21007;-85
2023/03/16 12:04:05;;;;;;;10.20;6.30;;;13.10;47.30;;;;;;5057687;28;20524;-86
2023/03/16 12:06:44;;;;;;;9.97;6.57;;;13.50;46.10;;;;;;5040366;28;20497;-85
2023/03/16 12:09:46;;;;;;;9.30;6.30;;;13.40;44.60;;;;;;5025044;28;20452;-85
2023/03/16 12:12:37;;;;;;;14.20;7.20;;;13.40;45.60;;;;;;5040610;28;21181;-86
2023/03/16 12:15:29;;;;;;;10.63;6.37;;;13.80;45.00;;;;;;5041408;28;20459;-84
2023/03/16 12:17:59;;;;;;;11.50;7.27;;;13.90;44.70;;;;;;5057346;28;20570;-86
2023/03/16 12:20:30;;;;;;;11.30;6.63;;;13.80;45.60;;;;;;5073018;28;20444;-86
2023/03/16 12:23:06;;;;;;;8.30;5.90;;;14.00;46.10;;;;;;5064497;28;20785;-86
2023/03/16 12:25:38;;;;;;;10.20;6.90;;;14.30;43.90;;;;;;5061410;28;21054;-86
2023/03/16 12:28:14;;;;;;;9.23;5.83;;;13.80;44.50;;;;;;5069222;28;20448;-84
2023/03/16 12:30:49;;;;;;;10.00;6.30;;;13.90;45.50;;;;;;5070001;28;21020;-85
2023/03/16 12:33:25;;;;;;;10.40;7.47;;;14.20;43.90;;;;;;5073983;28;20472;-84
2023/03/16 12:35:58;;;;;;;10.57;6.40;;;14.20;44.10;;;;;;5043511;28;20452;-86
2023/03/16 12:38:39;;;;;;;8.30;5.63;;;14.30;44.20;;;;;;5045098;28;20467;-85
2023/03/16 12:41:16;;;;;;;13.60;7.57;;;14.40;42.60;;;;;;5043361;28;20972;-85
2023/03/16 12:43:56;;;;;;;10.57;6.87;;;14.40;43.30;;;;;;5036901;28;20460;-85
2023/03/16 12:46:31;;;;;;;15.00;8.00;;;14.50;44.10;;;;;;5029209;28;20447;-84
2023/03/16 12:49:01;;;;;;;13.90;7.43;;;14.50;42.40;;;;;;5039905;28;20835;-86
2023/03/16 12:51:35;;;;;;;8.80;5.90;;;14.40;43.30;;;;;;5037108;28;20452;-85
2023/03/16 12:54:04;;;;;;;10.77;6.60;;;14.50;43.50;;;;;;5037925;28;20470;-85
2023/03/16 12:56:34;;;;;;;7.67;5.70;;;14.70;42.60;;;;;;5034967;28;20460;-86